sensor_id;sensor_type;location;lat;lon;timestamp;temperature;humidity
47779;DHT22;33538;48.432;11.350;2024-02-26T00:02:09;5.50;92.20
47779;DHT22;33538;48.432;11.350;2024-02-26T00:04:36;5.50;92.80
47779;DHT22;33538;48.432;11.350;2024-02-26T00:07:03;5.40;92.80
47779;DHT22;33538;48.432;11.350;2024-02-26T00:09:30;5.40;93.00
47779;DHT22;33538;48.432;11.350;2024-02-26T00:11:57;5.50;92.90
47779;DHT22;33538;48.432;11.350;2024-02-26T00:14:23;5.50;92.50
47779;DHT22;33538;48.432;11.350;2024-02-26T00:16:52;5.50;92.40
47779;DHT22;33538;48.432;11.350;2024-02-26T00:19:18;5.50;92.30
47779;DHT22;33538;48.432;11.350;2024-02-26T00:21:45;5.50;91.90
47779;DHT22;33538;48.432;11.350;2024-02-26T00:24:12;5.40;91.70
47779;DHT22;33538;48.432;11.350;2024-02-26T00:26:39;5.30;91.70
47779;DHT22;33538;48.432;11.350;2024-02-26T00:29:06;5.20;92.30
47779;DHT22;33538;48.432;11.350;2024-02-26T00:31:33;5.30;92.20
47779;DHT22;33538;48.432;11.350;2024-02-26T00:34:01;5.30;91.80
47779;DHT22;33538;48.432;11.350;2024-02-26T00:36:28;5.30;91.70
47779;DHT22;33538;48.432;11.350;2024-02-26T00:38:55;5.40;91.70
47779;DHT22;33538;48.432;11.350;2024-02-26T00:41:22;5.30;91.40
47779;DHT22;33538;48.432;11.350;2024-02-26T00:43:49;5.20;91.80
47779;DHT22;33538;48.432;11.350;2024-02-26T00:46:16;5.30;91.80
47779;DHT22;33538;48.432;11.350;2024-02-26T00:48:43;5.30;91.50
47779;DHT22;33538;48.432;11.350;2024-02-26T00:51:11;5.10;91.90
47779;DHT22;33538;48.432;11.350;2024-02-26T00:53:38;5.20;91.90
47779;DHT22;33538;48.432;11.350;2024-02-26T00:56:05;5.10;91.70
47779;DHT22;33538;48.432;11.350;2024-02-26T00:58:32;5.20;91.60
47779;DHT22;33538;48.432;11.350;2024-02-26T01:00:59;5.20;91.30
47779;DHT22;33538;48.432;11.350;2024-02-26T01:03:25;5.10;91.70
47779;DHT22;33538;48.432;11.350;2024-02-26T01:05:52;5.10;91.50
47779;DHT22;33538;48.432;11.350;2024-02-26T01:08:25;5.00;91.80
47779;DHT22;33538;48.432;11.350;2024-02-26T01:10:52;5.00;92.40
47779;DHT22;33538;48.432;11.350;2024-02-26T01:13:19;4.90;92.10
47779;DHT22;33538;48.432;11.350;2024-02-26T01:15:46;4.90;92.20
47779;DHT22;33538;48.432;11.350;2024-02-26T01:18:13;5.00;92.10
47779;DHT22;33538;48.432;11.350;2024-02-26T01:20:40;5.10;91.80
47779;DHT22;33538;48.432;11.350;2024-02-26T01:23:07;5.00;91.80
47779;DHT22;33538;48.432;11.350;2024-02-26T01:25:35;5.00;91.90
47779;DHT22;33538;48.432;11.350;2024-02-26T01:28:02;5.00;92.00
47779;DHT22;33538;48.432;11.350;2024-02-26T01:30:29;4.90;92.10
47779;DHT22;33538;48.432;11.350;2024-02-26T01:32:56;4.80;92.60
47779;DHT22;33538;48.432;11.350;2024-02-26T01:35:23;4.70;92.50
47779;DHT22;33538;48.432;11.350;2024-02-26T01:37:49;4.70;92.40
47779;DHT22;33538;48.432;11.350;2024-02-26T01:40:16;4.70;93.00
47779;DHT22;33538;48.432;11.350;2024-02-26T01:42:44;4.70;92.50
47779;DHT22;33538;48.432;11.350;2024-02-26T01:45:15;4.80;92.40
47779;DHT22;33538;48.432;11.350;2024-02-26T01:47:42;4.90;92.00
47779;DHT22;33538;48.432;11.350;2024-02-26T01:50:12;5.00;91.50
47779;DHT22;33538;48.432;11.350;2024-02-26T01:52:39;4.90;91.60
47779;DHT22;33538;48.432;11.350;2024-02-26T01:55:07;4.90;91.70
47779;DHT22;33538;48.432;11.350;2024-02-26T01:57:34;4.90;91.40
47779;DHT22;33538;48.432;11.350;2024-02-26T02:00:03;4.90;91.20
47779;DHT22;33538;48.432;11.350;2024-02-26T02:02:30;4.80;91.50
47779;DHT22;33538;48.432;11.350;2024-02-26T02:04:57;4.90;91.60
47779;DHT22;33538;48.432;11.350;2024-02-26T02:07:24;4.80;91.70
47779;DHT22;33538;48.432;11.350;2024-02-26T02:09:51;4.80;91.60
47779;DHT22;33538;48.432;11.350;2024-02-26T02:12:19;4.80;91.70
47779;DHT22;33538;48.432;11.350;2024-02-26T02:14:46;4.70;91.80
47779;DHT22;33538;48.432;11.350;2024-02-26T02:17:15;4.60;92.00
47779;DHT22;33538;48.432;11.350;2024-02-26T02:19:41;4.60;91.90
47779;DHT22;33538;48.432;11.350;2024-02-26T02:22:09;4.60;92.20
47779;DHT22;33538;48.432;11.350;2024-02-26T02:24:36;4.70;92.10
47779;DHT22;33538;48.432;11.350;2024-02-26T02:27:04;4.70;91.90
47779;DHT22;33538;48.432;11.350;2024-02-26T02:29:31;4.70;91.60
47779;DHT22;33538;48.432;11.350;2024-02-26T02:31:58;4.60;91.70
47779;DHT22;33538;48.432;11.350;2024-02-26T02:34:25;4.60;92.10
47779;DHT22;33538;48.432;11.350;2024-02-26T02:36:53;4.60;92.30
47779;DHT22;33538;48.432;11.350;2024-02-26T02:39:21;4.60;92.50
47779;DHT22;33538;48.432;11.350;2024-02-26T02:41:48;4.50;92.40
47779;DHT22;33538;48.432;11.350;2024-02-26T02:44:15;4.60;92.20
47779;DHT22;33538;48.432;11.350;2024-02-26T02:46:42;4.70;91.70
47779;DHT22;33538;48.432;11.350;2024-02-26T02:49:09;4.60;91.60
47779;DHT22;33538;48.432;11.350;2024-02-26T02:51:36;4.60;91.40
47779;DHT22;33538;48.432;11.350;2024-02-26T02:54:03;4.60;91.40
47779;DHT22;33538;48.432;11.350;2024-02-26T02:56:31;4.60;91.40
47779;DHT22;33538;48.432;11.350;2024-02-26T02:58:58;4.60;91.50
47779;DHT22;33538;48.432;11.350;2024-02-26T03:01:25;4.60;91.70
47779;DHT22;33538;48.432;11.350;2024-02-26T03:03:52;4.50;91.80
47779;DHT22;33538;48.432;11.350;2024-02-26T03:06:18;4.40;92.10
47779;DHT22;33538;48.432;11.350;2024-02-26T03:08:45;4.40;91.80
47779;DHT22;33538;48.432;11.350;2024-02-26T03:11:13;4.40;92.00
47779;DHT22;33538;48.432;11.350;2024-02-26T03:13:41;4.40;92.10
47779;DHT22;33538;48.432;11.350;2024-02-26T03:16:09;4.40;92.20
47779;DHT22;33538;48.432;11.350;2024-02-26T03:18:36;4.40;92.30
47779;DHT22;33538;48.432;11.350;2024-02-26T03:21:05;4.50;92.50
47779;DHT22;33538;48.432;11.350;2024-02-26T03:23:32;4.50;92.40
47779;DHT22;33538;48.432;11.350;2024-02-26T03:25:59;4.50;92.40
47779;DHT22;33538;48.432;11.350;2024-02-26T03:28:25;4.50;92.10
47779;DHT22;33538;48.432;11.350;2024-02-26T03:30:54;4.50;92.10
47779;DHT22;33538;48.432;11.350;2024-02-26T03:33:21;4.50;92.10
47779;DHT22;33538;48.432;11.350;2024-02-26T03:35:48;4.50;92.10
47779;DHT22;33538;48.432;11.350;2024-02-26T03:38:19;4.50;92.60
47779;DHT22;33538;48.432;11.350;2024-02-26T03:40:46;4.50;92.20
47779;DHT22;33538;48.432;11.350;2024-02-26T03:43:13;4.60;92.40
47779;DHT22;33538;48.432;11.350;2024-02-26T03:45:40;4.50;92.50
47779;DHT22;33538;48.432;11.350;2024-02-26T03:48:08;4.60;92.70
47779;DHT22;33538;48.432;11.350;2024-02-26T03:50:37;4.60;91.90
47779;DHT22;33538;48.432;11.350;2024-02-26T03:53:04;4.60;92.10
47779;DHT22;33538;48.432;11.350;2024-02-26T03:55:31;4.50;92.30
47779;DHT22;33538;48.432;11.350;2024-02-26T03:57:58;4.60;92.70
47779;DHT22;33538;48.432;11.350;2024-02-26T04:00:25;4.60;92.60
47779;DHT22;33538;48.432;11.350;2024-02-26T04:02:52;4.60;91.90
47779;DHT22;33538;48.432;11.350;2024-02-26T04:05:20;4.60;92.40
47779;DHT22;33538;48.432;11.350;2024-02-26T04:07:47;4.70;92.20
47779;DHT22;33538;48.432;11.350;2024-02-26T04:10:14;4.60;91.80
47779;DHT22;33538;48.432;11.350;2024-02-26T04:12:41;4.60;91.90
47779;DHT22;33538;48.432;11.350;2024-02-26T04:15:09;4.60;92.20
47779;DHT22;33538;48.432;11.350;2024-02-26T04:17:37;4.50;92.20
47779;DHT22;33538;48.432;11.350;2024-02-26T04:20:05;4.50;92.40
47779;DHT22;33538;48.432;11.350;2024-02-26T04:22:33;4.60;92.50
47779;DHT22;33538;48.432;11.350;2024-02-26T04:25:00;4.60;92.50
47779;DHT22;33538;48.432;11.350;2024-02-26T04:27:27;4.60;92.50
47779;DHT22;33538;48.432;11.350;2024-02-26T04:29:54;4.60;92.40
47779;DHT22;33538;48.432;11.350;2024-02-26T04:32:21;4.50;92.30
47779;DHT22;33538;48.432;11.350;2024-02-26T04:34:48;4.50;92.60
47779;DHT22;33538;48.432;11.350;2024-02-26T04:37:15;4.50;92.90
47779;DHT22;33538;48.432;11.350;2024-02-26T04:39:43;4.50;92.70
47779;DHT22;33538;48.432;11.350;2024-02-26T04:42:09;4.50;92.50
47779;DHT22;33538;48.432;11.350;2024-02-26T04:44:36;4.60;92.40
47779;DHT22;33538;48.432;11.350;2024-02-26T04:47:03;4.50;92.70
47779;DHT22;33538;48.432;11.350;2024-02-26T04:49:30;4.50;92.60
47779;DHT22;33538;48.432;11.350;2024-02-26T04:51:57;4.40;92.90
47779;DHT22;33538;48.432;11.350;2024-02-26T04:54:24;4.40;92.90
47779;DHT22;33538;48.432;11.350;2024-02-26T04:56:52;4.40;92.90
47779;DHT22;33538;48.432;11.350;2024-02-26T04:59:19;4.30;92.70
47779;DHT22;33538;48.432;11.350;2024-02-26T05:01:46;4.40;92.90
47779;DHT22;33538;48.432;11.350;2024-02-26T05:04:13;4.40;93.10
47779;DHT22;33538;48.432;11.350;2024-02-26T05:06:40;4.40;93.30
47779;DHT22;33538;48.432;11.350;2024-02-26T05:09:07;4.40;93.30
47779;DHT22;33538;48.432;11.350;2024-02-26T05:11:33;4.40;93.40
47779;DHT22;33538;48.432;11.350;2024-02-26T05:14:02;4.50;92.90
47779;DHT22;33538;48.432;11.350;2024-02-26T05:16:29;4.50;92.80
47779;DHT22;33538;48.432;11.350;2024-02-26T05:18:56;4.50;92.90
47779;DHT22;33538;48.432;11.350;2024-02-26T05:21:23;4.50;92.70
47779;DHT22;33538;48.432;11.350;2024-02-26T05:23:50;4.50;92.60
47779;DHT22;33538;48.432;11.350;2024-02-26T05:26:20;4.40;92.80
47779;DHT22;33538;48.432;11.350;2024-02-26T05:28:46;4.40;92.90
47779;DHT22;33538;48.432;11.350;2024-02-26T05:31:15;4.40;92.90
47779;DHT22;33538;48.432;11.350;2024-02-26T05:33:42;4.40;92.80
47779;DHT22;33538;48.432;11.350;2024-02-26T05:36:10;4.40;93.10
47779;DHT22;33538;48.432;11.350;2024-02-26T05:38:36;4.40;92.70
47779;DHT22;33538;48.432;11.350;2024-02-26T05:41:03;4.50;92.50
47779;DHT22;33538;48.432;11.350;2024-02-26T05:43:30;4.40;92.60
47779;DHT22;33538;48.432;11.350;2024-02-26T05:45:57;4.30;92.70
47779;DHT22;33538;48.432;11.350;2024-02-26T05:48:25;4.30;92.80
47779;DHT22;33538;48.432;11.350;2024-02-26T05:50:52;4.30;92.90
47779;DHT22;33538;48.432;11.350;2024-02-26T05:53:19;4.20;92.90
47779;DHT22;33538;48.432;11.350;2024-02-26T05:55:46;4.30;93.10
47779;DHT22;33538;48.432;11.350;2024-02-26T05:58:12;4.30;93.10
47779;DHT22;33538;48.432;11.350;2024-02-26T06:00:39;4.30;92.40
47779;DHT22;33538;48.432;11.350;2024-02-26T06:03:06;4.30;92.50
47779;DHT22;33538;48.432;11.350;2024-02-26T06:05:35;4.30;92.60
47779;DHT22;33538;48.432;11.350;2024-02-26T06:08:02;4.20;92.90
47779;DHT22;33538;48.432;11.350;2024-02-26T06:10:28;4.20;92.50
47779;DHT22;33538;48.432;11.350;2024-02-26T06:12:55;4.20;92.80
47779;DHT22;33538;48.432;11.350;2024-02-26T06:15:22;4.20;93.00
47779;DHT22;33538;48.432;11.350;2024-02-26T06:17:49;4.20;93.00
47779;DHT22;33538;48.432;11.350;2024-02-26T06:20:16;4.30;92.80
47779;DHT22;33538;48.432;11.350;2024-02-26T06:22:44;4.30;92.80
47779;DHT22;33538;48.432;11.350;2024-02-26T06:25:11;4.20;92.50
47779;DHT22;33538;48.432;11.350;2024-02-26T06:27:38;4.20;92.70
47779;DHT22;33538;48.432;11.350;2024-02-26T06:33:33;4.20;92.70
47779;DHT22;33538;48.432;11.350;2024-02-26T06:36:01;4.20;93.20
47779;DHT22;33538;48.432;11.350;2024-02-26T06:38:29;4.20;92.90
47779;DHT22;33538;48.432;11.350;2024-02-26T06:40:56;4.20;92.70
47779;DHT22;33538;48.432;11.350;2024-02-26T06:43:54;4.20;92.90
47779;DHT22;33538;48.432;11.350;2024-02-26T06:46:21;4.20;93.10
47779;DHT22;33538;48.432;11.350;2024-02-26T06:48:48;4.30;92.90
47779;DHT22;33538;48.432;11.350;2024-02-26T06:51:18;4.20;93.30
47779;DHT22;33538;48.432;11.350;2024-02-26T06:53:46;4.30;93.30
47779;DHT22;33538;48.432;11.350;2024-02-26T06:56:13;4.30;93.60
47779;DHT22;33538;48.432;11.350;2024-02-26T07:01:29;4.30;93.50
47779;DHT22;33538;48.432;11.350;2024-02-26T07:03:55;4.30;93.90
47779;DHT22;33538;48.432;11.350;2024-02-26T07:06:22;4.30;93.60
47779;DHT22;33538;48.432;11.350;2024-02-26T07:08:51;4.30;93.50
47779;DHT22;33538;48.432;11.350;2024-02-26T07:11:17;4.30;93.70
47779;DHT22;33538;48.432;11.350;2024-02-26T07:13:44;4.30;93.10
47779;DHT22;33538;48.432;11.350;2024-02-26T07:16:11;4.30;92.90
47779;DHT22;33538;48.432;11.350;2024-02-26T07:18:39;4.30;93.20
47779;DHT22;33538;48.432;11.350;2024-02-26T07:21:06;4.30;92.80
47779;DHT22;33538;48.432;11.350;2024-02-26T07:23:33;4.40;93.70
47779;DHT22;33538;48.432;11.350;2024-02-26T07:26:01;4.40;93.50
47779;DHT22;33538;48.432;11.350;2024-02-26T07:28:28;4.40;93.10
47779;DHT22;33538;48.432;11.350;2024-02-26T07:30:55;4.40;92.90
47779;DHT22;33538;48.432;11.350;2024-02-26T07:33:21;4.50;93.10
47779;DHT22;33538;48.432;11.350;2024-02-26T07:35:49;4.50;92.70
47779;DHT22;33538;48.432;11.350;2024-02-26T07:38:15;4.60;93.40
47779;DHT22;33538;48.432;11.350;2024-02-26T07:40:58;4.60;93.10
47779;DHT22;33538;48.432;11.350;2024-02-26T07:43:30;4.60;93.10
47779;DHT22;33538;48.432;11.350;2024-02-26T07:45:57;4.60;92.40
47779;DHT22;33538;48.432;11.350;2024-02-26T07:48:24;4.60;93.60
47779;DHT22;33538;48.432;11.350;2024-02-26T07:50:51;4.60;93.60
47779;DHT22;33538;48.432;11.350;2024-02-26T07:53:18;4.60;93.30
47779;DHT22;33538;48.432;11.350;2024-02-26T07:55:45;4.60;94.20
47779;DHT22;33538;48.432;11.350;2024-02-26T07:58:12;4.70;93.80
47779;DHT22;33538;48.432;11.350;2024-02-26T08:00:40;4.60;93.00
47779;DHT22;33538;48.432;11.350;2024-02-26T08:03:07;4.70;92.70
47779;DHT22;33538;48.432;11.350;2024-02-26T08:05:34;4.70;92.50
47779;DHT22;33538;48.432;11.350;2024-02-26T08:08:01;4.80;92.10
47779;DHT22;33538;48.432;11.350;2024-02-26T08:10:27;4.80;92.40
47779;DHT22;33538;48.432;11.350;2024-02-26T08:12:59;4.80;92.40
47779;DHT22;33538;48.432;11.350;2024-02-26T08:15:25;4.80;92.40
47779;DHT22;33538;48.432;11.350;2024-02-26T08:17:54;4.80;92.40
47779;DHT22;33538;48.432;11.350;2024-02-26T08:20:21;4.80;92.60
47779;DHT22;33538;48.432;11.350;2024-02-26T08:22:48;4.90;91.90
47779;DHT22;33538;48.432;11.350;2024-02-26T08:25:14;4.90;92.00
47779;DHT22;33538;48.432;11.350;2024-02-26T08:27:41;4.90;92.00
47779;DHT22;33538;48.432;11.350;2024-02-26T08:30:09;4.90;92.00
47779;DHT22;33538;48.432;11.350;2024-02-26T08:32:37;4.90;92.30
47779;DHT22;33538;48.432;11.350;2024-02-26T08:35:05;4.90;91.90
47779;DHT22;33538;48.432;11.350;2024-02-26T08:37:32;4.90;92.20
47779;DHT22;33538;48.432;11.350;2024-02-26T08:39:59;5.00;92.00
47779;DHT22;33538;48.432;11.350;2024-02-26T08:42:31;5.00;91.90
47779;DHT22;33538;48.432;11.350;2024-02-26T08:44:58;5.00;91.80
47779;DHT22;33538;48.432;11.350;2024-02-26T08:47:25;5.10;91.80
47779;DHT22;33538;48.432;11.350;2024-02-26T08:49:52;5.10;91.80
47779;DHT22;33538;48.432;11.350;2024-02-26T08:52:21;5.10;91.80
47779;DHT22;33538;48.432;11.350;2024-02-26T08:54:48;5.10;91.60
47779;DHT22;33538;48.432;11.350;2024-02-26T08:57:15;5.20;91.60
47779;DHT22;33538;48.432;11.350;2024-02-26T08:59:42;5.20;91.50
47779;DHT22;33538;48.432;11.350;2024-02-26T09:02:09;5.20;91.30
47779;DHT22;33538;48.432;11.350;2024-02-26T09:04:36;5.20;91.30
47779;DHT22;33538;48.432;11.350;2024-02-26T09:07:03;5.20;91.20
47779;DHT22;33538;48.432;11.350;2024-02-26T09:09:31;5.20;91.20
47779;DHT22;33538;48.432;11.350;2024-02-26T09:11:58;5.20;91.30
47779;DHT22;33538;48.432;11.350;2024-02-26T09:14:25;5.20;91.30
47779;DHT22;33538;48.432;11.350;2024-02-26T09:16:54;5.20;91.20
47779;DHT22;33538;48.432;11.350;2024-02-26T09:19:21;5.20;91.20
47779;DHT22;33538;48.432;11.350;2024-02-26T09:21:48;5.30;91.10
47779;DHT22;33538;48.432;11.350;2024-02-26T09:24:14;5.20;91.10
47779;DHT22;33538;48.432;11.350;2024-02-26T09:26:43;5.20;91.20
47779;DHT22;33538;48.432;11.350;2024-02-26T09:29:10;5.30;91.40
47779;DHT22;33538;48.432;11.350;2024-02-26T09:31:37;5.30;91.50
47779;DHT22;33538;48.432;11.350;2024-02-26T09:34:03;5.30;91.50
47779;DHT22;33538;48.432;11.350;2024-02-26T09:36:30;5.30;91.50
47779;DHT22;33538;48.432;11.350;2024-02-26T09:38:57;5.30;91.80
47779;DHT22;33538;48.432;11.350;2024-02-26T09:41:28;5.30;91.80
47779;DHT22;33538;48.432;11.350;2024-02-26T09:43:57;5.30;92.00
47779;DHT22;33538;48.432;11.350;2024-02-26T09:46:25;5.40;92.00
47779;DHT22;33538;48.432;11.350;2024-02-26T09:48:52;5.40;92.40
47779;DHT22;33538;48.432;11.350;2024-02-26T09:55:13;5.40;92.40
47779;DHT22;33538;48.432;11.350;2024-02-26T09:57:44;5.40;92.40
47779;DHT22;33538;48.432;11.350;2024-02-26T10:00:16;5.50;92.70
47779;DHT22;33538;48.432;11.350;2024-02-26T10:02:45;5.50;92.30
47779;DHT22;33538;48.432;11.350;2024-02-26T10:05:14;5.50;92.20
47779;DHT22;33538;48.432;11.350;2024-02-26T10:07:44;5.50;92.20
47779;DHT22;33538;48.432;11.350;2024-02-26T10:10:11;5.50;92.10
47779;DHT22;33538;48.432;11.350;2024-02-26T10:12:38;5.50;92.00
47779;DHT22;33538;48.432;11.350;2024-02-26T10:15:06;5.60;92.10
47779;DHT22;33538;48.432;11.350;2024-02-26T10:17:34;5.60;92.20
47779;DHT22;33538;48.432;11.350;2024-02-26T10:20:12;5.60;92.30
47779;DHT22;33538;48.432;11.350;2024-02-26T10:22:40;5.60;92.20
47779;DHT22;33538;48.432;11.350;2024-02-26T10:25:08;5.60;92.20
47779;DHT22;33538;48.432;11.350;2024-02-26T10:27:35;5.70;92.20
47779;DHT22;33538;48.432;11.350;2024-02-26T10:30:03;5.70;92.20
47779;DHT22;33538;48.432;11.350;2024-02-26T10:32:30;5.70;92.20
47779;DHT22;33538;48.432;11.350;2024-02-26T10:34:58;5.70;92.30
47779;DHT22;33538;48.432;11.350;2024-02-26T10:37:25;5.70;92.30
47779;DHT22;33538;48.432;11.350;2024-02-26T10:39:56;5.70;92.40
47779;DHT22;33538;48.432;11.350;2024-02-26T10:42:23;5.70;92.40
47779;DHT22;33538;48.432;11.350;2024-02-26T10:44:50;5.70;92.40
47779;DHT22;33538;48.432;11.350;2024-02-26T10:47:16;5.70;92.50
47779;DHT22;33538;48.432;11.350;2024-02-26T10:49:46;5.80;92.40
47779;DHT22;33538;48.432;11.350;2024-02-26T10:52:15;5.80;92.50
47779;DHT22;33538;48.432;11.350;2024-02-26T10:54:44;5.80;92.40
47779;DHT22;33538;48.432;11.350;2024-02-26T10:57:15;5.80;92.50
47779;DHT22;33538;48.432;11.350;2024-02-26T10:59:45;5.90;92.40
47779;DHT22;33538;48.432;11.350;2024-02-26T11:02:13;5.90;92.50
47779;DHT22;33538;48.432;11.350;2024-02-26T11:04:40;5.90;92.60
47779;DHT22;33538;48.432;11.350;2024-02-26T11:07:08;5.90;92.50
47779;DHT22;33538;48.432;11.350;2024-02-26T11:09:39;6.00;92.60
47779;DHT22;33538;48.432;11.350;2024-02-26T11:12:08;6.00;92.70
47779;DHT22;33538;48.432;11.350;2024-02-26T11:14:36;6.10;92.90
47779;DHT22;33538;48.432;11.350;2024-02-26T11:17:03;6.10;92.90
47779;DHT22;33538;48.432;11.350;2024-02-26T11:19:30;6.10;93.00
47779;DHT22;33538;48.432;11.350;2024-02-26T11:22:01;6.10;93.00
47779;DHT22;33538;48.432;11.350;2024-02-26T11:24:47;6.20;93.00
47779;DHT22;33538;48.432;11.350;2024-02-26T11:27:16;6.20;93.30
47779;DHT22;33538;48.432;11.350;2024-02-26T11:29:47;6.20;93.10
47779;DHT22;33538;48.432;11.350;2024-02-26T11:32:16;6.20;93.20
47779;DHT22;33538;48.432;11.350;2024-02-26T11:34:43;6.20;93.30
47779;DHT22;33538;48.432;11.350;2024-02-26T11:37:11;6.20;93.50
47779;DHT22;33538;48.432;11.350;2024-02-26T11:39:40;6.30;93.70
47779;DHT22;33538;48.432;11.350;2024-02-26T11:42:09;6.30;93.80
47779;DHT22;33538;48.432;11.350;2024-02-26T11:44:36;6.30;93.90
47779;DHT22;33538;48.432;11.350;2024-02-26T11:47:12;6.30;93.80
47779;DHT22;33538;48.432;11.350;2024-02-26T11:49:39;6.30;93.90
47779;DHT22;33538;48.432;11.350;2024-02-26T11:52:08;6.30;94.20
47779;DHT22;33538;48.432;11.350;2024-02-26T11:54:39;6.30;94.30
47779;DHT22;33538;48.432;11.350;2024-02-26T11:57:21;6.40;94.40
47779;DHT22;33538;48.432;11.350;2024-02-26T11:59:49;6.40;94.70
47779;DHT22;33538;48.432;11.350;2024-02-26T12:02:40;6.40;94.80
47779;DHT22;33538;48.432;11.350;2024-02-26T12:05:10;6.40;95.10
47779;DHT22;33538;48.432;11.350;2024-02-26T12:07:40;6.50;95.00
47779;DHT22;33538;48.432;11.350;2024-02-26T12:10:24;6.50;94.90
47779;DHT22;33538;48.432;11.350;2024-02-26T12:12:55;6.50;95.20
47779;DHT22;33538;48.432;11.350;2024-02-26T12:15:27;6.50;95.30
47779;DHT22;33538;48.432;11.350;2024-02-26T12:17:56;6.60;95.30
47779;DHT22;33538;48.432;11.350;2024-02-26T12:20:23;6.60;95.10
47779;DHT22;33538;48.432;11.350;2024-02-26T12:22:51;6.60;94.90
47779;DHT22;33538;48.432;11.350;2024-02-26T12:25:22;6.60;95.30
47779;DHT22;33538;48.432;11.350;2024-02-26T12:27:50;6.70;95.10
47779;DHT22;33538;48.432;11.350;2024-02-26T12:30:18;6.70;95.10
47779;DHT22;33538;48.432;11.350;2024-02-26T12:32:45;6.70;95.30
47779;DHT22;33538;48.432;11.350;2024-02-26T12:35:12;6.70;95.30
47779;DHT22;33538;48.432;11.350;2024-02-26T12:37:39;6.80;95.50
47779;DHT22;33538;48.432;11.350;2024-02-26T12:40:11;6.80;95.50
47779;DHT22;33538;48.432;11.350;2024-02-26T12:42:38;6.80;95.30
47779;DHT22;33538;48.432;11.350;2024-02-26T12:45:07;6.80;95.50
47779;DHT22;33538;48.432;11.350;2024-02-26T12:47:36;6.80;95.30
47779;DHT22;33538;48.432;11.350;2024-02-26T12:50:04;6.90;95.30
47779;DHT22;33538;48.432;11.350;2024-02-26T12:52:36;6.90;95.40
47779;DHT22;33538;48.432;11.350;2024-02-26T12:55:04;6.90;95.50
47779;DHT22;33538;48.432;11.350;2024-02-26T12:57:32;6.90;95.40
47779;DHT22;33538;48.432;11.350;2024-02-26T12:59:59;7.00;95.30
47779;DHT22;33538;48.432;11.350;2024-02-26T13:02:27;7.00;95.50
47779;DHT22;33538;48.432;11.350;2024-02-26T13:04:56;7.00;95.60
47779;DHT22;33538;48.432;11.350;2024-02-26T13:07:23;7.00;95.70
47779;DHT22;33538;48.432;11.350;2024-02-26T13:09:51;7.00;95.70
47779;DHT22;33538;48.432;11.350;2024-02-26T13:12:18;7.00;95.80
47779;DHT22;33538;48.432;11.350;2024-02-26T13:14:45;7.00;95.90
47779;DHT22;33538;48.432;11.350;2024-02-26T13:17:12;7.10;95.90
47779;DHT22;33538;48.432;11.350;2024-02-26T13:19:49;7.10;95.90
47779;DHT22;33538;48.432;11.350;2024-02-26T13:22:20;7.10;96.00
47779;DHT22;33538;48.432;11.350;2024-02-26T13:24:53;7.10;96.30
47779;DHT22;33538;48.432;11.350;2024-02-26T13:27:21;7.10;96.30
47779;DHT22;33538;48.432;11.350;2024-02-26T13:29:48;7.10;96.80
47779;DHT22;33538;48.432;11.350;2024-02-26T13:32:15;7.10;96.30
47779;DHT22;33538;48.432;11.350;2024-02-26T13:34:42;7.10;96.40
47779;DHT22;33538;48.432;11.350;2024-02-26T13:37:09;7.20;96.60
47779;DHT22;33538;48.432;11.350;2024-02-26T13:39:38;7.20;96.30
47779;DHT22;33538;48.432;11.350;2024-02-26T13:42:08;7.20;96.50
47779;DHT22;33538;48.432;11.350;2024-02-26T13:44:35;7.20;96.60
47779;DHT22;33538;48.432;11.350;2024-02-26T13:47:01;7.20;96.90
47779;DHT22;33538;48.432;11.350;2024-02-26T13:49:28;7.20;97.10
47779;DHT22;33538;48.432;11.350;2024-02-26T13:51:55;7.20;97.00
47779;DHT22;33538;48.432;11.350;2024-02-26T13:54:22;7.20;96.80
47779;DHT22;33538;48.432;11.350;2024-02-26T13:56:50;7.20;96.90
47779;DHT22;33538;48.432;11.350;2024-02-26T13:59:18;7.20;97.00
47779;DHT22;33538;48.432;11.350;2024-02-26T14:01:44;7.20;97.00
47779;DHT22;33538;48.432;11.350;2024-02-26T14:04:11;7.20;97.20
47779;DHT22;33538;48.432;11.350;2024-02-26T14:06:39;7.20;97.30
47779;DHT22;33538;48.432;11.350;2024-02-26T14:09:06;7.20;97.20
47779;DHT22;33538;48.432;11.350;2024-02-26T14:11:33;7.20;97.60
47779;DHT22;33538;48.432;11.350;2024-02-26T14:14:01;7.30;97.50
47779;DHT22;33538;48.432;11.350;2024-02-26T14:16:29;7.30;97.50
47779;DHT22;33538;48.432;11.350;2024-02-26T14:18:58;7.30;97.80
47779;DHT22;33538;48.432;11.350;2024-02-26T14:21:25;7.30;97.70
47779;DHT22;33538;48.432;11.350;2024-02-26T14:23:52;7.20;97.80
47779;DHT22;33538;48.432;11.350;2024-02-26T14:26:19;7.30;97.90
47779;DHT22;33538;48.432;11.350;2024-02-26T14:28:46;7.20;97.90
47779;DHT22;33538;48.432;11.350;2024-02-26T14:31:17;7.20;98.00
47779;DHT22;33538;48.432;11.350;2024-02-26T14:33:44;7.30;98.10
47779;DHT22;33538;48.432;11.350;2024-02-26T14:36:11;7.30;98.40
47779;DHT22;33538;48.432;11.350;2024-02-26T14:38:38;7.30;98.30
47779;DHT22;33538;48.432;11.350;2024-02-26T14:41:05;7.30;98.40
47779;DHT22;33538;48.432;11.350;2024-02-26T14:43:32;7.30;98.50
47779;DHT22;33538;48.432;11.350;2024-02-26T14:45:59;7.30;98.50
47779;DHT22;33538;48.432;11.350;2024-02-26T14:48:27;7.30;98.60
47779;DHT22;33538;48.432;11.350;2024-02-26T14:50:54;7.30;98.80
47779;DHT22;33538;48.432;11.350;2024-02-26T14:53:21;7.30;98.90
47779;DHT22;33538;48.432;11.350;2024-02-26T14:55:48;7.30;99.00
47779;DHT22;33538;48.432;11.350;2024-02-26T14:58:15;7.30;99.00
47779;DHT22;33538;48.432;11.350;2024-02-26T15:00:42;7.30;99.10
47779;DHT22;33538;48.432;11.350;2024-02-26T15:03:09;7.30;99.00
47779;DHT22;33538;48.432;11.350;2024-02-26T15:05:37;7.30;99.20
47779;DHT22;33538;48.432;11.350;2024-02-26T15:08:05;7.30;99.30
47779;DHT22;33538;48.432;11.350;2024-02-26T15:10:32;7.30;99.50
47779;DHT22;33538;48.432;11.350;2024-02-26T15:12:58;7.30;99.40
47779;DHT22;33538;48.432;11.350;2024-02-26T15:15:25;7.30;99.40
47779;DHT22;33538;48.432;11.350;2024-02-26T15:17:52;7.30;99.40
47779;DHT22;33538;48.432;11.350;2024-02-26T15:20:19;7.30;99.60
47779;DHT22;33538;48.432;11.350;2024-02-26T15:22:47;7.40;99.70
47779;DHT22;33538;48.432;11.350;2024-02-26T15:25:14;7.40;99.90
47779;DHT22;33538;48.432;11.350;2024-02-26T15:27:42;7.30;99.90
47779;DHT22;33538;48.432;11.350;2024-02-26T15:30:10;7.40;99.90
47779;DHT22;33538;48.432;11.350;2024-02-26T15:32:37;7.30;99.90
47779;DHT22;33538;48.432;11.350;2024-02-26T15:35:04;7.30;99.90
47779;DHT22;33538;48.432;11.350;2024-02-26T15:37:31;7.40;99.90
47779;DHT22;33538;48.432;11.350;2024-02-26T15:39:59;7.30;99.90
47779;DHT22;33538;48.432;11.350;2024-02-26T15:42:26;7.30;99.90
47779;DHT22;33538;48.432;11.350;2024-02-26T15:44:53;7.30;99.90